createdAt,value
2023-04-23T00:00:12.477Z,7.18
2023-04-23T00:02:44.352Z,7.12
2023-04-23T00:05:13.316Z,7.02
2023-04-23T00:07:42.584Z,6.95
2023-04-23T00:10:11.098Z,7.00
2023-04-23T00:12:39.651Z,6.89
2023-04-23T00:15:08.350Z,6.92
2023-04-23T00:17:36.230Z,7.03
2023-04-23T00:20:04.418Z,7.16
2023-04-23T00:22:32.403Z,7.14
2023-04-23T00:25:00.195Z,7.26
2023-04-23T00:27:28.154Z,7.26
2023-04-23T00:29:56.079Z,7.42
2023-04-23T00:32:24.012Z,7.48
2023-04-23T00:34:52.516Z,7.50
2023-04-23T00:37:20.409Z,7.57
2023-04-23T00:39:48.709Z,7.57
2023-04-23T00:42:17.395Z,7.59
2023-04-23T00:44:45.436Z,7.51
2023-04-23T00:47:15.450Z,7.48
2023-04-23T00:49:43.572Z,7.41
2023-04-23T00:52:11.408Z,7.45
2023-04-23T00:54:39.413Z,7.57
2023-04-23T00:57:08.288Z,7.61
2023-04-23T00:59:36.480Z,7.67
2023-04-23T01:02:04.457Z,7.62
2023-04-23T01:04:33.336Z,7.56
2023-04-23T01:07:01.957Z,7.44
2023-04-23T01:09:30.202Z,7.32
2023-04-23T01:11:58.656Z,7.37
2023-04-23T01:14:26.750Z,7.33
2023-04-23T01:16:55.046Z,7.40
2023-04-23T01:19:23.111Z,7.35
2023-04-23T01:21:51.515Z,7.31
2023-04-23T01:24:19.437Z,7.18
2023-04-23T01:26:47.348Z,7.29
2023-04-23T01:29:18.639Z,7.30
2023-04-23T01:31:47.512Z,7.44
2023-04-23T01:34:15.942Z,7.45
2023-04-23T01:36:45.729Z,7.07
2023-04-23T01:39:14.027Z,7.05
2023-04-23T01:41:42.099Z,7.14
2023-04-23T01:44:10.934Z,7.25
2023-04-23T01:46:39.064Z,7.31
2023-04-23T01:49:07.165Z,7.50
2023-04-23T01:51:36.017Z,7.45
2023-04-23T01:54:04.106Z,7.39
2023-04-23T01:56:34.092Z,7.42
2023-04-23T01:59:02.768Z,7.50
2023-04-23T02:01:47.604Z,7.44
2023-04-23T02:04:17.064Z,7.10
2023-04-23T02:06:49.596Z,7.33
2023-04-23T02:09:17.607Z,7.08
2023-04-23T02:11:45.590Z,7.26
2023-04-23T02:14:14.068Z,7.22
2023-04-23T02:16:42.509Z,7.45
2023-04-23T02:19:10.415Z,7.47
2023-04-23T02:21:38.356Z,7.52
2023-04-23T02:24:07.254Z,7.59
2023-04-23T02:26:35.328Z,7.68
2023-04-23T02:29:03.596Z,7.60
2023-04-23T02:31:31.821Z,7.55
2023-04-23T02:34:00.968Z,7.62
2023-04-23T02:36:31.316Z,7.60
2023-04-23T02:38:59.270Z,7.47
2023-04-23T02:41:27.463Z,7.48
2023-04-23T02:43:55.591Z,7.43
2023-04-23T02:46:23.650Z,7.46
2023-04-23T02:48:51.511Z,7.40
2023-04-23T02:51:19.598Z,7.40
2023-04-23T02:55:25.951Z,7.28
2023-04-23T02:57:54.007Z,7.38
2023-04-23T03:00:22.127Z,7.38
2023-04-23T03:02:50.778Z,7.43
2023-04-23T03:05:18.949Z,7.38
2023-04-23T03:07:46.873Z,7.36
2023-04-23T03:10:14.841Z,7.40
2023-04-23T03:12:43.223Z,7.42
2023-04-23T03:15:11.871Z,7.43
2023-04-23T03:17:40.348Z,7.38
2023-04-23T03:20:10.698Z,7.34
2023-04-23T03:22:39.714Z,7.24
2023-04-23T03:25:09.455Z,7.23
2023-04-23T03:27:42.961Z,7.21
2023-04-23T03:30:12.019Z,7.20
2023-04-23T03:32:40.205Z,7.25
2023-04-23T03:35:09.802Z,7.27
2023-04-23T03:37:40.577Z,7.28
2023-04-23T03:40:09.460Z,7.23
2023-04-23T03:42:40.541Z,7.17
2023-04-23T03:45:09.772Z,7.18
2023-04-23T03:47:37.738Z,7.14
2023-04-23T03:50:07.995Z,7.12
2023-04-23T03:52:36.418Z,7.15
2023-04-23T03:55:05.000Z,7.21
2023-04-23T03:57:39.760Z,7.16
2023-04-23T04:00:26.776Z,7.12
2023-04-23T04:02:55.064Z,7.02
2023-04-23T04:05:25.843Z,7.20
2023-04-23T04:07:55.976Z,7.02
2023-04-23T04:10:26.528Z,7.16
2023-04-23T04:12:55.575Z,7.31
2023-04-23T04:15:23.865Z,7.39
2023-04-23T04:17:52.028Z,7.38
2023-04-23T04:20:20.051Z,7.42
2023-04-23T04:22:48.433Z,7.28
2023-04-23T04:25:16.422Z,7.08
2023-04-23T04:27:44.703Z,7.10
2023-04-23T04:30:12.926Z,6.72
2023-04-23T04:32:42.389Z,6.70
2023-04-23T04:35:10.586Z,6.54
2023-04-23T04:37:38.686Z,6.39
2023-04-23T04:40:08.220Z,6.44
2023-04-23T04:42:36.605Z,6.36
2023-04-23T04:45:04.866Z,6.44
2023-04-23T04:47:32.975Z,6.45
2023-04-23T04:50:00.974Z,6.58
2023-04-23T04:52:29.084Z,6.50
2023-04-23T04:54:57.068Z,6.83
2023-04-23T04:57:25.120Z,6.95
2023-04-23T04:59:54.080Z,7.03
2023-04-23T05:02:23.574Z,7.44
2023-04-23T05:04:52.708Z,7.45
2023-04-23T05:07:20.696Z,7.65
2023-04-23T05:09:48.854Z,7.72
2023-04-23T05:12:16.763Z,7.70
2023-04-23T05:14:44.678Z,7.90
2023-04-23T05:17:13.815Z,8.12
2023-04-23T05:19:41.600Z,8.22
2023-04-23T05:22:09.580Z,8.05
2023-04-23T05:24:37.476Z,7.89
2023-04-23T05:27:05.643Z,8.18
2023-04-23T05:29:33.821Z,8.49
2023-04-23T05:32:01.929Z,8.67
2023-04-23T05:34:29.923Z,8.69
2023-04-23T05:36:57.968Z,8.97
2023-04-23T05:39:26.427Z,9.40
2023-04-23T05:41:54.417Z,9.89
2023-04-23T05:44:22.683Z,10.45
2023-04-23T05:46:50.660Z,10.74
2023-04-23T05:49:19.247Z,10.95
2023-04-23T05:51:47.404Z,10.63
2023-04-23T05:54:15.323Z,10.38
2023-04-23T05:56:43.361Z,10.24
2023-04-23T05:59:11.528Z,10.57
2023-04-23T06:01:39.558Z,10.73
2023-04-23T06:04:08.992Z,10.99
2023-04-23T06:06:37.328Z,12.10
2023-04-23T06:09:05.972Z,13.20
2023-04-23T06:11:35.999Z,14.67
2023-04-23T06:14:04.801Z,16.43
2023-04-23T06:16:32.875Z,16.47
2023-04-23T06:19:00.793Z,16.57
2023-04-23T06:21:29.080Z,16.85
2023-04-23T06:23:57.180Z,16.64
2023-04-23T06:26:25.203Z,16.99
2023-04-23T06:28:56.674Z,17.68
2023-04-23T06:31:30.858Z,18.14
2023-04-23T06:33:58.904Z,18.83
2023-04-23T06:36:27.287Z,20.08
2023-04-23T06:38:55.985Z,21.50
2023-04-23T06:41:24.465Z,22.68
2023-04-23T06:44:06.574Z,23.07
2023-04-23T06:46:42.268Z,20.86
2023-04-23T06:49:11.266Z,22.36
2023-04-23T06:51:39.770Z,23.40
2023-04-23T06:54:08.253Z,23.20
2023-04-23T06:56:36.209Z,23.67
2023-04-23T06:59:04.469Z,22.68
2023-04-23T07:01:35.638Z,23.49
2023-04-23T07:04:04.385Z,24.46
2023-04-23T07:06:35.000Z,24.96
2023-04-23T07:09:03.516Z,24.49
2023-04-23T07:11:35.124Z,24.60
2023-04-23T07:14:04.166Z,25.57
2023-04-23T07:16:34.255Z,26.04
2023-04-23T07:19:02.904Z,25.94
2023-04-23T07:21:31.421Z,26.44
2023-04-23T07:24:00.954Z,26.68
2023-04-23T07:26:29.530Z,26.25
2023-04-23T07:28:58.098Z,26.89
2023-04-23T07:31:26.864Z,27.39
2023-04-23T07:33:56.709Z,27.52
2023-04-23T07:36:25.130Z,27.65
2023-04-23T07:38:53.580Z,27.38
2023-04-23T07:41:22.184Z,27.57
2023-04-23T07:43:50.370Z,27.84
2023-04-23T07:46:18.771Z,27.24
2023-04-23T07:48:47.499Z,27.66
2023-04-23T07:51:16.736Z,27.51
2023-04-23T07:53:44.749Z,27.05
2023-04-23T07:56:13.429Z,26.91
2023-04-23T07:58:41.789Z,26.24
2023-04-23T08:01:10.363Z,24.70
2023-04-23T08:03:38.463Z,25.47
2023-04-23T08:06:07.043Z,27.09
2023-04-23T08:08:34.852Z,26.26
2023-04-23T08:11:03.318Z,23.92
2023-04-23T08:13:31.809Z,23.01
2023-04-23T08:16:03.326Z,23.01
2023-04-23T08:18:32.985Z,23.71
2023-04-23T08:21:01.832Z,24.08
2023-04-23T08:23:33.288Z,24.35
2023-04-23T08:26:03.197Z,24.08
2023-04-23T08:28:31.692Z,24.74
2023-04-23T08:31:09.451Z,24.26
2023-04-23T08:33:44.066Z,23.26
2023-04-23T08:36:12.513Z,23.51
2023-04-23T08:38:40.789Z,23.03
2023-04-23T08:41:11.024Z,23.60
2023-04-23T08:43:48.399Z,22.64
2023-04-23T08:46:19.627Z,22.52
2023-04-23T08:48:51.062Z,22.35
2023-04-23T08:51:21.938Z,21.62
2023-04-23T08:53:56.588Z,22.91
2023-04-23T08:56:25.806Z,22.92
2023-04-23T08:58:56.984Z,22.75
2023-04-23T09:01:26.345Z,22.56
2023-04-23T09:03:55.051Z,22.86
2023-04-23T09:06:23.458Z,22.19
2023-04-23T09:08:53.743Z,23.28
2023-04-23T09:11:24.414Z,23.89
2023-04-23T09:13:52.767Z,23.77
2023-04-23T09:16:21.358Z,23.86
2023-04-23T09:18:51.837Z,23.90
2023-04-23T09:21:21.845Z,23.78
2023-04-23T09:23:53.040Z,23.98
2023-04-23T09:26:24.930Z,23.99
2023-04-23T09:28:53.457Z,23.85
2023-04-23T09:31:23.261Z,24.08
2023-04-23T09:33:53.876Z,24.36
2023-04-23T09:36:25.122Z,25.18
2023-04-23T09:38:57.977Z,25.46
2023-04-23T09:41:28.289Z,25.61
2023-04-23T09:43:58.037Z,25.34
2023-04-23T09:46:43.840Z,23.76
2023-04-23T09:49:13.561Z,22.97
2023-04-23T09:51:48.346Z,22.46
2023-04-23T09:54:23.100Z,22.61
2023-04-23T09:56:54.199Z,23.02
2023-04-23T09:59:46.672Z,23.70
2023-04-23T10:02:15.033Z,23.03
2023-04-23T10:04:43.670Z,23.07
2023-04-23T10:07:20.048Z,22.24
2023-04-23T10:09:49.048Z,21.54
2023-04-23T10:12:36.924Z,20.98
2023-04-23T10:15:08.488Z,21.48
2023-04-23T10:17:38.040Z,21.70
2023-04-23T10:20:08.703Z,21.86
2023-04-23T10:22:39.316Z,22.58
2023-04-23T10:25:12.420Z,22.71
2023-04-23T10:27:52.680Z,23.90
2023-04-23T10:30:23.482Z,23.71
2023-04-23T10:32:52.198Z,22.68
2023-04-23T10:35:20.716Z,21.12
2023-04-23T10:37:49.320Z,20.60
2023-04-23T10:40:24.781Z,20.23
2023-04-23T10:42:53.960Z,20.53
2023-04-23T10:45:25.371Z,20.35
2023-04-23T10:47:57.811Z,20.04
2023-04-23T10:50:30.704Z,19.61
2023-04-23T10:52:59.668Z,19.42
2023-04-23T10:55:32.847Z,19.69
2023-04-23T10:58:06.800Z,19.28
2023-04-23T11:00:46.209Z,19.84
2023-04-23T11:03:43.223Z,20.01
2023-04-23T11:06:40.473Z,20.06
2023-04-23T11:09:43.059Z,20.03
2023-04-23T11:12:32.748Z,19.96
2023-04-23T11:15:15.280Z,20.19
2023-04-23T11:17:47.904Z,20.14
2023-04-23T11:20:21.176Z,20.33
2023-04-23T11:22:51.252Z,20.15
2023-04-23T11:25:30.772Z,20.80
2023-04-23T11:27:59.389Z,20.59
2023-04-23T11:30:29.020Z,20.30
2023-04-23T11:33:00.629Z,20.26
2023-04-23T11:35:30.803Z,20.51
2023-04-23T11:37:59.326Z,20.52
2023-04-23T11:40:31.332Z,20.51
2023-04-23T11:42:59.821Z,20.79
2023-04-23T11:45:29.977Z,21.03
2023-04-23T11:48:01.316Z,21.35
2023-04-23T11:50:33.594Z,21.78
2023-04-23T11:53:12.282Z,21.32
2023-04-23T11:55:46.144Z,20.77
2023-04-23T11:58:18.640Z,21.01
2023-04-23T12:00:47.083Z,20.53
2023-04-23T12:03:16.884Z,20.35
2023-04-23T12:05:46.548Z,20.51
2023-04-23T12:08:19.260Z,20.84
2023-04-23T12:10:53.459Z,20.60
2023-04-23T12:16:06.790Z,20.10
2023-04-23T12:18:42.674Z,19.95
2023-04-23T12:21:13.724Z,19.91
2023-04-23T12:23:45.372Z,19.51
2023-04-23T12:26:15.718Z,19.84
2023-04-23T12:29:01.820Z,19.77
2023-04-23T12:31:30.629Z,19.92
2023-04-23T12:34:07.222Z,19.67
2023-04-23T12:36:36.699Z,19.85
2023-04-23T12:39:26.448Z,19.62
2023-04-23T12:41:58.243Z,19.96
2023-04-23T12:44:27.088Z,20.02
2023-04-23T12:47:00.858Z,19.21
2023-04-23T12:49:30.162Z,19.44
2023-04-23T12:52:03.992Z,19.10
2023-04-23T12:54:40.050Z,19.29
2023-04-23T12:57:14.596Z,19.43
2023-04-23T12:59:43.181Z,19.55
2023-04-23T13:02:11.917Z,19.66
2023-04-23T13:04:40.598Z,19.61
2023-04-23T13:07:09.855Z,19.58
2023-04-23T13:09:38.371Z,19.66
2023-04-23T13:12:06.814Z,19.41
2023-04-23T13:14:35.448Z,18.92
2023-04-23T13:17:04.353Z,18.55
2023-04-23T13:19:34.440Z,18.40
2023-04-23T13:22:05.101Z,18.32
2023-04-23T13:24:34.134Z,18.28
2023-04-23T13:27:02.526Z,17.75
2023-04-23T13:29:31.032Z,17.51
2023-04-23T13:31:59.749Z,17.29
2023-04-23T13:34:28.283Z,17.50
2023-04-23T13:36:57.444Z,17.27
2023-04-23T13:39:25.863Z,17.62
2023-04-23T13:44:28.276Z,18.02
2023-04-23T13:46:58.926Z,18.25
2023-04-23T13:49:28.069Z,18.39
2023-04-23T13:52:00.586Z,18.11
2023-04-23T13:54:29.851Z,17.62
2023-04-23T13:56:58.547Z,17.41
2023-04-23T13:59:27.417Z,17.66
2023-04-23T14:01:55.900Z,17.89
2023-04-23T14:04:24.672Z,17.55
2023-04-23T14:06:53.311Z,17.75
2023-04-23T14:09:22.870Z,17.97
2023-04-23T14:11:52.390Z,18.23
2023-04-23T14:14:20.731Z,18.61
2023-04-23T14:16:49.224Z,18.83
2023-04-23T14:19:17.648Z,18.82
2023-04-23T14:21:45.888Z,18.68
2023-04-23T14:24:39.293Z,18.50
2023-04-23T14:27:07.986Z,18.05
2023-04-23T14:29:40.964Z,18.42
2023-04-23T14:32:10.078Z,18.42
2023-04-23T14:34:38.863Z,18.53
2023-04-23T14:37:07.685Z,18.69
2023-04-23T14:39:36.053Z,18.66
2023-04-23T14:42:04.542Z,18.76
2023-04-23T14:44:33.248Z,18.76
2023-04-23T14:47:01.502Z,18.73
2023-04-23T14:49:29.967Z,18.49
2023-04-23T14:51:58.473Z,18.53
2023-04-23T14:54:26.935Z,18.66
2023-04-23T14:56:55.428Z,18.60
2023-04-23T14:59:24.412Z,18.38
2023-04-23T15:01:52.797Z,18.14
2023-04-23T15:04:21.421Z,17.64
2023-04-23T15:06:49.970Z,17.68
2023-04-23T15:09:18.056Z,17.64
2023-04-23T15:11:46.472Z,17.63
2023-04-23T15:14:26.328Z,17.41
2023-04-23T15:16:54.978Z,17.31
2023-04-23T15:19:23.559Z,17.07
2023-04-23T15:21:51.943Z,17.03
2023-04-23T15:24:20.689Z,16.85
2023-04-23T15:26:49.977Z,16.76
2023-04-23T15:29:19.580Z,16.75
2023-04-23T15:31:48.257Z,16.56
2023-04-23T15:34:16.503Z,16.48
2023-04-23T15:36:44.931Z,16.39
2023-04-23T15:39:13.419Z,16.36
2023-04-23T15:41:43.541Z,16.35
2023-04-23T15:44:14.479Z,16.37
2023-04-23T15:46:42.873Z,16.43
2023-04-23T15:49:11.230Z,16.07
2023-04-23T15:51:39.677Z,15.70
2023-04-23T15:54:08.959Z,15.51
2023-04-23T15:56:37.867Z,15.45
2023-04-23T15:59:06.787Z,15.30
2023-04-23T16:01:36.493Z,15.35
2023-04-23T16:04:11.023Z,15.15
2023-04-23T16:06:41.108Z,15.05
2023-04-23T16:09:09.491Z,14.94
2023-04-23T16:11:38.690Z,14.93
2023-04-23T16:14:09.582Z,14.78
2023-04-23T16:16:39.199Z,14.74
2023-04-23T16:19:08.001Z,14.66
2023-04-23T16:21:36.435Z,14.62
2023-04-23T16:24:05.379Z,14.67
2023-04-23T16:26:34.451Z,14.49
2023-04-23T16:29:16.690Z,14.50
2023-04-23T16:31:51.089Z,14.50
2023-04-23T16:34:19.543Z,14.40
2023-04-23T16:36:48.100Z,14.41
2023-04-23T16:39:16.778Z,14.41
2023-04-23T16:41:45.278Z,14.49
2023-04-23T16:44:13.980Z,14.32
2023-04-23T16:46:42.423Z,14.33
2023-04-23T16:49:11.159Z,14.41
2023-04-23T16:51:39.557Z,14.41
2023-04-23T16:54:08.217Z,14.42
2023-04-23T16:56:37.124Z,14.42
2023-04-23T16:59:06.084Z,14.46
2023-04-23T17:01:34.474Z,14.52
2023-04-23T17:04:03.535Z,14.58
2023-04-23T17:06:33.207Z,14.56
2023-04-23T17:09:04.440Z,14.54
2023-04-23T17:11:32.756Z,14.64
2023-04-23T17:14:01.122Z,14.41
2023-04-23T17:16:29.770Z,14.47
2023-04-23T17:18:58.475Z,14.52
2023-04-23T17:21:27.749Z,14.43
2023-04-23T17:23:56.460Z,14.43
2023-04-23T17:26:24.900Z,14.23
2023-04-23T17:28:53.490Z,14.12
2023-04-23T17:31:22.115Z,14.18
2023-04-23T17:33:50.796Z,14.14
2023-04-23T17:36:19.702Z,14.09
2023-04-23T17:38:48.172Z,13.98
2023-04-23T17:41:18.019Z,13.79
2023-04-23T17:43:46.839Z,13.57
2023-04-23T17:46:15.209Z,13.37
2023-04-23T17:48:43.875Z,13.53
2023-04-23T17:51:12.264Z,13.50
2023-04-23T17:53:42.639Z,13.15
2023-04-23T17:56:11.306Z,13.24
2023-04-23T17:58:40.098Z,12.97
2023-04-23T18:01:09.933Z,12.82
2023-04-23T18:03:38.729Z,12.61
2023-04-23T18:06:08.807Z,12.78
2023-04-23T18:08:38.995Z,12.85
2023-04-23T18:11:09.086Z,12.77
2023-04-23T18:13:37.987Z,12.82
2023-04-23T18:16:06.464Z,12.63
2023-04-23T18:18:35.000Z,12.45
2023-04-23T18:21:04.924Z,12.41
2023-04-23T18:23:36.222Z,12.21
2023-04-23T18:26:04.855Z,12.01
2023-04-23T18:28:35.323Z,12.13
2023-04-23T18:31:04.886Z,12.07
2023-04-23T18:33:58.942Z,12.05
2023-04-23T18:36:34.397Z,11.82
2023-04-23T18:39:03.384Z,11.97
2023-04-23T18:41:32.248Z,11.90
2023-04-23T18:44:00.612Z,11.84
2023-04-23T18:46:31.617Z,11.88
2023-04-23T18:49:26.694Z,11.85
2023-04-23T18:51:55.717Z,11.85
2023-04-23T18:54:25.889Z,11.96
2023-04-23T18:56:54.459Z,11.92
2023-04-23T18:59:23.007Z,11.80
2023-04-23T19:01:52.495Z,11.72
2023-04-23T19:04:21.599Z,11.72
2023-04-23T19:06:50.194Z,11.56
2023-04-23T19:09:18.563Z,11.54
2023-04-23T19:11:47.010Z,11.47
2023-04-23T19:14:16.644Z,11.43
2023-04-23T19:16:45.908Z,11.36
2023-04-23T19:19:14.398Z,11.26
2023-04-23T19:21:42.901Z,11.20
2023-04-23T19:24:11.391Z,11.06
2023-04-23T19:26:39.925Z,11.00
2023-04-23T19:29:08.672Z,10.91
2023-04-23T19:31:37.260Z,10.88
2023-04-23T19:34:05.643Z,10.79
2023-04-23T19:36:34.160Z,10.73
2023-04-23T19:39:04.950Z,10.69
2023-04-23T19:41:33.857Z,10.60
2023-04-23T19:44:02.501Z,10.53
2023-04-23T19:46:31.073Z,10.46
2023-04-23T19:48:59.971Z,10.38
2023-04-23T19:51:33.230Z,10.30
2023-04-23T19:54:02.683Z,10.30
2023-04-23T19:56:31.372Z,10.20
2023-04-23T19:58:59.480Z,10.21
2023-04-23T20:01:28.446Z,10.23
2023-04-23T20:03:57.003Z,10.21
2023-04-23T20:06:25.387Z,10.17
2023-04-23T20:09:18.455Z,10.11
2023-04-23T20:11:47.921Z,9.93
2023-04-23T20:14:16.252Z,9.91
2023-04-23T20:16:44.878Z,9.77
2023-04-23T20:19:14.506Z,9.76
2023-04-23T20:21:46.216Z,9.63
2023-04-23T20:24:15.392Z,9.66
2023-04-23T20:26:43.482Z,9.63
2023-04-23T20:29:11.852Z,9.45
2023-04-23T20:31:40.086Z,9.42
2023-04-23T20:34:08.569Z,9.45
2023-04-23T20:36:38.969Z,9.42
2023-04-23T20:39:08.561Z,9.40
2023-04-23T20:41:36.932Z,9.30
2023-04-23T20:44:05.374Z,9.23
2023-04-23T20:46:33.899Z,9.12
2023-04-23T20:49:03.533Z,9.16
2023-04-23T20:51:35.672Z,9.12
2023-04-23T20:54:05.515Z,9.11
2023-04-23T20:56:33.803Z,9.05
2023-04-23T20:59:01.700Z,8.97
2023-04-23T21:01:30.229Z,8.86
2023-04-23T21:04:00.736Z,8.76
2023-04-23T21:06:31.446Z,8.76
2023-04-23T21:08:59.739Z,8.77
2023-04-23T21:11:27.976Z,8.71
2023-04-23T21:13:56.354Z,8.73
2023-04-23T21:16:24.568Z,8.63
2023-04-23T21:18:52.571Z,8.67
2023-04-23T21:21:20.846Z,8.61
2023-04-23T21:23:48.801Z,8.64
2023-04-23T21:26:16.870Z,8.51
2023-04-23T21:28:44.873Z,8.35
2023-04-23T21:31:17.964Z,8.45
2023-04-23T21:33:46.070Z,8.37
2023-04-23T21:36:14.065Z,8.44
2023-04-23T21:38:42.133Z,8.31
2023-04-23T21:41:10.071Z,8.26
2023-04-23T21:43:38.607Z,8.31
2023-04-23T21:46:07.491Z,8.20
2023-04-23T21:48:35.817Z,8.05
2023-04-23T21:51:03.781Z,8.06
2023-04-23T21:53:31.714Z,8.11
2023-04-23T21:55:59.685Z,8.14
2023-04-23T21:58:28.184Z,8.20
2023-04-23T22:00:56.388Z,8.22
2023-04-23T22:03:35.520Z,8.25
2023-04-23T22:06:08.311Z,8.28
2023-04-23T22:08:38.386Z,7.94
2023-04-23T22:11:08.228Z,8.12
2023-04-23T22:13:36.673Z,8.02
2023-04-23T22:16:13.483Z,7.89
2023-04-23T22:18:49.053Z,7.90
2023-04-23T22:21:16.936Z,7.94
2023-04-23T22:23:44.972Z,7.97
2023-04-23T22:26:13.217Z,7.90
2023-04-23T22:28:43.308Z,7.81
2023-04-23T22:31:11.998Z,7.76
2023-04-23T22:33:39.843Z,7.74
2023-04-23T22:36:08.144Z,7.76
2023-04-23T22:38:36.541Z,7.70
2023-04-23T22:41:04.592Z,7.47
2023-04-23T22:43:34.976Z,7.41
2023-04-23T22:46:03.066Z,7.62
2023-04-23T22:48:31.040Z,7.67
2023-04-23T22:50:59.388Z,7.75
2023-04-23T22:53:27.139Z,7.66
2023-04-23T22:55:55.971Z,7.80
2023-04-23T22:58:23.791Z,7.67
2023-04-23T23:00:51.657Z,7.71
2023-04-23T23:03:19.579Z,7.69
2023-04-23T23:05:47.759Z,7.86
2023-04-23T23:08:15.579Z,8.00
2023-04-23T23:10:43.562Z,8.04
2023-04-23T23:13:11.681Z,8.13
2023-04-23T23:15:39.567Z,7.72
2023-04-23T23:18:07.979Z,7.66
2023-04-23T23:20:35.928Z,7.60
2023-04-23T23:23:03.940Z,7.82
2023-04-23T23:25:31.994Z,7.90
2023-04-23T23:27:59.794Z,8.00
2023-04-23T23:30:27.718Z,8.07
2023-04-23T23:32:56.998Z,7.95
2023-04-23T23:35:25.024Z,8.13
2023-04-23T23:37:53.068Z,8.17
2023-04-23T23:40:21.067Z,8.28
2023-04-23T23:42:48.923Z,8.31
2023-04-23T23:45:17.042Z,8.41
2023-04-23T23:47:46.193Z,8.39
2023-04-23T23:50:14.546Z,8.45
2023-04-23T23:52:42.344Z,8.50
2023-04-23T23:55:11.050Z,8.58
2023-04-23T23:57:38.925Z,8.65
